createdAt,value
2018-03-02T04:02:11.980Z,14.35
2018-03-02T04:04:41.078Z,43.42
2018-03-02T04:07:10.155Z,48.55
2018-03-02T04:09:38.493Z,36.55
2018-03-02T04:12:06.812Z,24.42
2018-03-02T04:14:35.157Z,40.72
2018-03-02T04:17:03.475Z,38.05
2018-03-02T04:19:32.570Z,43.40
2018-03-02T04:22:01.658Z,20.98
2018-03-02T04:24:29.994Z,36.05
2018-03-02T04:26:58.300Z,32.92
2018-03-02T04:29:26.628Z,45.12
2018-03-02T04:31:54.957Z,27.23
2018-03-02T04:34:23.299Z,31.37
2018-03-02T04:36:51.613Z,54.92
2018-03-02T04:39:19.954Z,41.90
2018-03-02T04:41:48.265Z,34.60
2018-03-02T04:44:16.609Z,39.78
2018-03-02T04:46:44.925Z,24.90
2018-03-02T04:49:13.260Z,35.40
2018-03-02T04:51:41.572Z,45.75
2018-03-02T04:54:09.955Z,23.67
2018-03-02T04:56:38.264Z,21.87
2018-03-02T04:59:07.365Z,18.27
2018-03-02T05:01:36.437Z,25.65
2018-03-02T05:04:04.780Z,36.70
2018-03-02T05:06:33.096Z,26.60
2018-03-02T05:09:01.406Z,22.48
2018-03-02T05:11:29.728Z,45.50
2018-03-02T05:13:58.041Z,36.88
2018-03-02T05:16:27.140Z,39.95
2018-03-02T05:18:56.216Z,41.03
2018-03-02T05:21:24.545Z,25.80
2018-03-02T05:23:52.860Z,32.30
2018-03-02T05:26:21.199Z,28.50
2018-03-02T05:28:49.516Z,42.88
2018-03-02T05:31:17.844Z,33.53
2018-03-02T05:33:46.161Z,30.37
2018-03-02T05:36:14.492Z,31.95
2018-03-02T05:38:42.808Z,34.17
2018-03-02T05:41:11.136Z,18.42
2018-03-02T05:43:40.211Z,27.70
2018-03-02T05:46:08.539Z,41.83
2018-03-02T05:48:36.862Z,30.08
2018-03-02T05:51:05.197Z,34.15
2018-03-02T05:53:33.503Z,35.53
2018-03-02T05:56:01.846Z,37.00
2018-03-02T05:58:30.157Z,26.62
2018-03-02T06:00:58.516Z,29.52
2018-03-02T06:03:26.825Z,31.40
2018-03-02T06:05:55.134Z,37.90
2018-03-02T06:08:24.233Z,41.78
2018-03-02T06:10:53.303Z,28.10
2018-03-02T06:13:22.404Z,17.10
2018-03-02T06:15:50.716Z,31.67
2018-03-02T06:18:19.049Z,45.28
2018-03-02T06:20:48.143Z,46.20
2018-03-02T06:23:16.488Z,22.40
2018-03-02T06:25:44.812Z,34.30
2018-03-02T06:28:14.025Z,22.08
2018-03-02T06:30:43.105Z,40.72
2018-03-02T06:33:12.320Z,31.92
2018-03-02T06:35:41.400Z,38.65
2018-03-02T06:38:10.504Z,32.92
2018-03-02T06:40:39.576Z,56.28
2018-03-02T06:43:07.917Z,55.42
2018-03-02T06:45:36.304Z,50.83
2018-03-02T06:48:04.631Z,44.33
2018-03-02T06:50:33.708Z,32.92
2018-03-02T06:53:02.042Z,44.13
2018-03-02T06:55:30.359Z,32.28
2018-03-02T06:57:58.688Z,37.75
2018-03-02T07:00:27.000Z,32.35
2018-03-02T07:02:55.342Z,56.67
2018-03-02T07:05:23.654Z,31.10
2018-03-02T07:07:51.988Z,16.95
2018-03-02T07:10:20.301Z,31.85
2018-03-02T07:12:48.612Z,37.40
2018-03-02T07:15:16.948Z,50.83
2018-03-02T07:17:45.256Z,50.60
2018-03-02T07:20:13.594Z,36.58
2018-03-02T07:22:41.901Z,39.20
2018-03-02T07:25:10.239Z,54.33
2018-03-02T07:27:38.556Z,40.03
2018-03-02T07:30:06.888Z,54.08
2018-03-02T07:32:35.195Z,57.47
2018-03-02T07:35:03.529Z,53.72
2018-03-02T07:37:32.620Z,26.23
2018-03-02T07:40:01.716Z,45.30
2018-03-02T07:42:30.793Z,33.40
2018-03-02T07:44:59.123Z,23.58
2018-03-02T07:47:27.432Z,40.92
2018-03-02T07:49:55.773Z,44.00
2018-03-02T07:52:24.084Z,33.50
2018-03-02T07:54:52.419Z,42.78
2018-03-02T07:57:20.737Z,32.00
2018-03-02T07:59:49.695Z,41.22
2018-03-02T08:02:18.007Z,29.17
2018-03-02T08:04:46.323Z,28.33
2018-03-02T08:07:15.428Z,29.20
2018-03-02T08:09:43.765Z,35.42
2018-03-02T08:12:12.105Z,34.00
2018-03-02T08:14:40.416Z,38.25
2018-03-02T08:17:08.753Z,45.08
2018-03-02T08:19:37.064Z,27.15
2018-03-02T08:22:05.401Z,42.08
2018-03-02T08:24:33.709Z,48.50
2018-03-02T08:27:02.050Z,36.58
2018-03-02T08:29:31.124Z,24.15
2018-03-02T08:31:59.464Z,39.35
2018-03-02T08:34:27.771Z,26.45
2018-03-02T08:36:56.112Z,36.15
2018-03-02T08:39:24.424Z,36.38
2018-03-02T08:41:52.759Z,51.08
2018-03-02T08:44:21.079Z,61.08
2018-03-02T08:46:49.420Z,45.50
2018-03-02T08:49:17.733Z,46.78
2018-03-02T08:51:46.043Z,44.47
2018-03-02T08:54:14.381Z,44.45
2018-03-02T08:56:42.700Z,43.53
2018-03-02T08:59:11.799Z,52.38
2018-03-02T09:01:40.117Z,35.22
2018-03-02T09:04:09.224Z,38.88
2018-03-02T09:06:38.308Z,43.65
2018-03-02T09:09:06.660Z,28.33
2018-03-02T09:11:34.976Z,29.87
2018-03-02T09:14:03.315Z,39.63
2018-03-02T09:16:31.636Z,41.20
2018-03-02T09:18:59.972Z,45.45
2018-03-02T09:21:28.293Z,36.42
2018-03-02T09:23:56.645Z,36.13
2018-03-02T09:26:24.969Z,40.15
2018-03-02T09:28:54.087Z,32.60
2018-03-02T09:31:22.421Z,55.78
2018-03-02T09:33:50.764Z,41.90
2018-03-02T09:36:19.077Z,38.95
2018-03-02T09:38:47.418Z,27.27
2018-03-02T09:41:15.728Z,35.08
2018-03-02T09:43:44.075Z,47.40
2018-03-02T09:46:12.397Z,48.83
2018-03-02T09:48:40.728Z,39.50
2018-03-02T09:51:09.048Z,43.33
2018-03-02T09:53:37.384Z,30.70
2018-03-02T09:56:05.709Z,52.92
2018-03-02T09:58:34.828Z,35.88
2018-03-02T10:01:03.914Z,34.13
2018-03-02T10:03:33.019Z,29.65
2018-03-02T10:06:02.100Z,37.50
2018-03-02T10:08:31.207Z,40.40
2018-03-02T10:11:00.288Z,45.70
2018-03-02T10:13:29.400Z,35.60
2018-03-02T10:15:57.745Z,42.28
2018-03-02T10:18:26.063Z,26.52
2018-03-02T10:20:54.405Z,31.73
2018-03-02T10:23:22.728Z,35.15
2018-03-02T10:25:51.084Z,36.08
2018-03-02T10:28:20.182Z,45.35
2018-03-02T10:30:49.292Z,36.30
2018-03-02T10:33:17.623Z,35.03
2018-03-02T10:35:45.968Z,36.35
2018-03-02T10:38:14.286Z,43.58
2018-03-02T10:40:42.621Z,35.80
2018-03-02T10:43:10.950Z,29.95
2018-03-02T10:45:39.292Z,31.70
2018-03-02T10:48:07.603Z,34.25
2018-03-02T10:50:35.947Z,37.33
2018-03-02T10:53:04.264Z,37.65
2018-03-02T10:55:33.380Z,33.67
2018-03-02T10:58:02.465Z,34.65
2018-03-02T11:00:37.164Z,37.40
2018-03-02T11:03:05.485Z,44.20
2018-03-02T11:05:39.444Z,45.75
2018-03-02T11:08:07.764Z,43.87
2018-03-02T11:10:36.877Z,34.00
2018-03-02T11:13:05.205Z,49.70
2018-03-02T11:15:33.556Z,41.22
2018-03-02T11:18:01.876Z,43.60
2018-03-02T11:20:30.219Z,45.20
2018-03-02T11:22:58.559Z,52.60
2018-03-02T11:25:26.904Z,47.95
2018-03-02T11:27:55.234Z,41.70
2018-03-02T11:30:23.600Z,32.45
2018-03-02T11:32:51.938Z,28.43
2018-03-02T11:35:20.258Z,53.50
2018-03-02T11:37:48.599Z,49.20
2018-03-02T11:40:16.914Z,44.37
2018-03-02T11:42:45.251Z,31.90
2018-03-02T11:45:13.576Z,60.40
2018-03-02T11:47:41.924Z,60.83
2018-03-02T11:50:11.016Z,55.47
2018-03-02T11:52:40.169Z,31.07
2018-03-02T11:55:08.464Z,38.77
2018-03-02T11:57:36.808Z,43.13
2018-03-02T12:00:05.588Z,47.80
2018-03-02T12:02:33.934Z,28.20
2018-03-02T12:05:02.305Z,50.40
2018-03-02T12:07:30.622Z,39.90
2018-03-02T12:09:58.957Z,42.60
2018-03-02T12:12:27.266Z,50.23
2018-03-02T12:14:55.611Z,45.33
2018-03-02T12:17:24.717Z,46.22
2018-03-02T12:19:53.064Z,30.50
2018-03-02T12:22:21.401Z,36.97
2018-03-02T12:24:49.744Z,32.33
2018-03-02T12:27:18.056Z,37.60
2018-03-02T12:29:46.396Z,34.23
2018-03-02T12:32:14.716Z,46.70
2018-03-02T12:34:43.053Z,36.10
2018-03-02T12:37:11.365Z,53.03
2018-03-02T12:39:40.464Z,52.93
2018-03-02T12:42:08.780Z,38.00
2018-03-02T12:44:37.117Z,46.13
2018-03-02T12:47:05.465Z,30.60
2018-03-02T12:49:37.341Z,27.60
2018-03-02T12:52:06.439Z,37.67
2018-03-02T12:54:35.535Z,40.63
2018-03-02T12:57:04.627Z,58.87
2018-03-02T12:59:33.719Z,53.57
2018-03-02T13:02:02.817Z,26.00
2018-03-02T13:04:31.909Z,44.73
2018-03-02T13:07:00.300Z,34.30
2018-03-02T13:09:29.380Z,47.03
2018-03-02T13:11:57.711Z,48.90
2018-03-02T13:14:26.032Z,37.47
2018-03-02T13:16:54.382Z,36.60
2018-03-02T13:19:22.711Z,47.00
2018-03-02T13:21:51.060Z,60.10
2018-03-02T13:24:20.154Z,40.07
2018-03-02T13:27:00.300Z,57.07
2018-03-02T13:29:28.624Z,54.63
2018-03-02T13:31:56.953Z,59.33
2018-03-02T13:34:38.616Z,58.40
2018-03-02T13:37:06.960Z,44.67
2018-03-02T13:39:47.791Z,33.47
2018-03-02T13:42:16.145Z,56.30
2018-03-02T13:44:44.469Z,47.37
2018-03-02T13:47:12.804Z,42.20
2018-03-02T13:49:53.137Z,52.07
2018-03-02T13:52:21.473Z,58.43
2018-03-02T13:54:49.776Z,34.17
2018-03-02T13:57:30.608Z,37.23
2018-03-02T13:59:58.922Z,57.37
2018-03-02T14:02:39.844Z,57.80
2018-03-02T14:05:08.148Z,53.30
2018-03-02T14:07:36.484Z,31.93
2018-03-02T14:10:04.797Z,56.53
2018-03-02T14:12:33.140Z,54.03
2018-03-02T14:15:01.470Z,57.23
2018-03-02T14:17:30.595Z,55.97
2018-03-02T14:19:59.664Z,54.60
2018-03-02T14:22:28.005Z,55.00
2018-03-02T14:24:57.955Z,64.47
2018-03-02T14:27:26.284Z,60.80
2018-03-02T14:29:54.588Z,69.37
2018-03-02T14:32:22.931Z,59.90
2018-03-02T14:34:51.256Z,60.37
2018-03-02T14:37:19.561Z,65.10
2018-03-02T14:39:48.653Z,53.03
2018-03-02T14:42:17.738Z,54.70
2018-03-02T14:44:46.071Z,62.23
2018-03-02T14:47:14.381Z,59.27
2018-03-02T14:49:42.717Z,62.63
2018-03-02T14:52:11.030Z,51.40
2018-03-02T14:54:39.361Z,65.20
2018-03-02T14:57:07.676Z,67.80
2018-03-02T14:59:36.017Z,48.47
2018-03-02T15:02:04.334Z,58.27
2018-03-02T15:04:32.670Z,56.63
2018-03-02T15:07:00.980Z,33.33
2018-03-02T15:09:29.320Z,62.17
2018-03-02T15:11:57.647Z,50.47
2018-03-02T15:14:25.976Z,54.97
2018-03-02T15:16:54.300Z,56.80
2018-03-02T15:19:22.634Z,50.80
2018-03-02T15:21:50.972Z,60.37
2018-03-02T15:24:19.309Z,58.07
2018-03-02T15:26:47.627Z,61.00
2018-03-02T15:29:15.988Z,64.27
2018-03-02T15:31:44.305Z,51.63
2018-03-02T15:34:13.388Z,50.47
2018-03-02T15:36:41.728Z,66.33
2018-03-02T15:39:10.053Z,49.80
2018-03-02T15:41:39.165Z,44.10
2018-03-02T15:44:07.477Z,62.33
2018-03-02T15:46:35.819Z,59.03
2018-03-02T15:49:04.896Z,73.50
2018-03-02T15:51:33.994Z,62.33
2018-03-02T15:54:02.309Z,67.63
2018-03-02T15:56:30.661Z,65.63
2018-03-02T15:58:59.744Z,65.00
2018-03-02T16:01:28.845Z,70.10
2018-03-02T16:03:57.933Z,64.27
2018-03-02T16:06:27.085Z,62.90
2018-03-02T16:08:55.373Z,65.33
2018-03-02T16:11:23.729Z,66.70
2018-03-02T16:13:52.040Z,61.53
2018-03-02T16:16:20.358Z,66.37
2018-03-02T16:18:48.698Z,45.37
2018-03-02T16:21:17.268Z,66.90
2018-03-02T16:23:45.612Z,55.37
2018-03-02T16:26:13.944Z,65.03
2018-03-02T16:28:42.284Z,63.50
2018-03-02T16:31:10.631Z,62.77
2018-03-02T16:33:39.710Z,64.37
2018-03-02T16:36:08.807Z,56.30
2018-03-02T16:38:37.937Z,64.67
2018-03-02T16:41:07.021Z,48.97
2018-03-02T16:43:35.357Z,66.30
2018-03-02T16:46:03.700Z,55.73
2018-03-02T16:48:32.012Z,67.83
2018-03-02T16:51:00.375Z,65.57
2018-03-02T16:53:28.701Z,75.80
2018-03-02T16:55:57.052Z,57.40
2018-03-02T16:58:25.369Z,73.77
2018-03-02T17:00:53.722Z,62.60
2018-03-02T17:06:22.740Z,74.80
2018-03-02T17:08:51.813Z,73.97
2018-03-02T17:11:20.148Z,70.67
2018-03-02T17:13:48.461Z,70.20
2018-03-02T17:16:16.796Z,59.70
2018-03-02T17:18:45.116Z,63.70
2018-03-02T17:21:13.453Z,66.00
2018-03-02T17:23:41.773Z,61.87
2018-03-02T17:26:10.105Z,60.17
2018-03-02T17:28:38.420Z,63.83
2018-03-02T17:31:06.756Z,59.93
2018-03-02T17:33:35.085Z,70.10
2018-03-02T17:36:03.404Z,63.80
2018-03-02T17:38:31.749Z,59.30
2018-03-02T17:41:00.074Z,60.30
2018-03-02T17:43:28.409Z,66.20
2018-03-02T17:45:56.725Z,62.33
2018-03-02T17:48:25.067Z,67.97
2018-03-02T17:50:53.416Z,66.57
2018-03-02T17:53:21.757Z,66.97
2018-03-02T17:55:50.070Z,61.30
2018-03-02T17:58:18.407Z,64.80
2018-03-02T18:00:47.480Z,67.53
2018-03-02T18:03:15.820Z,63.87
2018-03-02T18:05:44.225Z,68.30
2018-03-02T18:08:12.525Z,78.60
2018-03-02T18:10:42.685Z,64.73
2018-03-02T18:13:11.024Z,68.97
2018-03-02T18:15:40.103Z,65.90
2018-03-02T18:18:08.442Z,68.17
2018-03-02T18:20:36.753Z,63.53
2018-03-02T18:23:05.096Z,62.70
2018-03-02T18:25:33.407Z,63.40
2018-03-02T18:28:01.759Z,76.63
2018-03-02T18:30:30.080Z,73.03
2018-03-02T18:32:58.407Z,70.70
2018-03-02T18:35:26.720Z,70.37
2018-03-02T18:37:55.057Z,65.97
2018-03-02T18:40:23.374Z,70.97
2018-03-02T18:42:51.715Z,63.87
2018-03-02T18:45:20.029Z,73.87
2018-03-02T18:47:48.376Z,60.63
2018-03-02T18:50:16.693Z,65.97
2018-03-02T18:52:45.029Z,66.67
2018-03-02T18:55:13.345Z,70.60
2018-03-02T19:00:41.573Z,67.83
2018-03-02T19:03:09.926Z,67.07
2018-03-02T19:05:38.245Z,65.73
2018-03-02T19:08:06.589Z,67.03
2018-03-02T19:10:35.666Z,56.93
2018-03-02T19:13:04.000Z,61.17
2018-03-02T19:15:32.328Z,63.67
2018-03-02T19:18:00.669Z,66.20
2018-03-02T19:20:28.976Z,66.70
2018-03-02T19:22:57.323Z,63.20
2018-03-02T19:25:25.641Z,60.40
2018-03-02T19:27:53.987Z,70.17
2018-03-02T19:30:22.305Z,67.90
2018-03-02T19:32:51.384Z,64.60
2018-03-02T19:35:19.724Z,71.60
2018-03-02T19:37:48.040Z,66.73
2018-03-02T19:40:16.380Z,66.00
2018-03-02T19:42:44.694Z,61.53
2018-03-02T19:45:13.040Z,67.97
2018-03-02T19:47:41.352Z,76.93
2018-03-02T19:50:09.688Z,66.50
2018-03-02T19:52:38.038Z,67.13
2018-03-02T19:55:07.143Z,66.73
2018-03-02T19:57:35.460Z,62.10
2018-03-02T20:00:03.788Z,62.77
2018-03-02T20:02:32.108Z,63.20
2018-03-02T20:05:00.449Z,72.27
2018-03-02T20:07:28.782Z,61.83
2018-03-02T20:09:57.117Z,67.77
2018-03-02T20:12:25.424Z,72.60
2018-03-02T20:14:53.755Z,62.13
2018-03-02T20:17:22.068Z,70.10
2018-03-02T20:19:50.419Z,67.73
2018-03-02T20:28:19.871Z,72.93
2018-03-02T20:30:48.209Z,65.57
2018-03-02T20:33:17.298Z,70.00
2018-03-02T20:35:45.640Z,70.53
2018-03-02T20:38:13.974Z,78.20
2018-03-02T20:40:42.333Z,66.00
2018-03-02T20:43:10.644Z,71.07
2018-03-02T20:45:38.987Z,72.40
2018-03-02T20:48:07.350Z,70.93
2018-03-02T20:50:35.660Z,71.53
2018-03-02T20:53:04.757Z,77.57
2018-03-02T20:55:33.861Z,68.13
2018-03-02T20:58:02.945Z,74.27
2018-03-02T21:00:32.051Z,69.97
2018-03-02T21:03:01.134Z,63.57
2018-03-02T21:05:30.242Z,67.93
2018-03-02T21:07:59.320Z,74.53
2018-03-02T21:10:28.449Z,77.50
2018-03-02T21:12:57.547Z,64.20
2018-03-02T21:15:25.865Z,74.43
2018-03-02T21:17:54.210Z,71.30
2018-03-02T21:20:22.521Z,72.07
2018-03-02T21:22:50.872Z,75.47
2018-03-02T21:25:19.188Z,70.20
2018-03-02T21:27:47.520Z,66.73
2018-03-02T21:30:15.841Z,80.20
2018-03-02T21:32:44.172Z,74.87
2018-03-02T21:35:12.488Z,75.23
2018-03-02T21:37:40.824Z,71.90
2018-03-02T21:40:09.144Z,69.73
2018-03-02T21:42:38.485Z,69.87
2018-03-02T21:45:07.573Z,74.00
2018-03-02T21:47:36.680Z,73.97
2018-03-02T21:50:05.761Z,74.67
2018-03-02T21:52:34.101Z,74.13
2018-03-02T21:55:02.421Z,68.97
2018-03-02T21:57:31.528Z,74.17
2018-03-02T22:00:00.612Z,66.30
2018-03-02T22:02:29.720Z,70.00
2018-03-02T22:04:58.813Z,69.63
2018-03-02T22:07:27.924Z,74.50
2018-03-02T22:09:56.236Z,74.03
2018-03-02T22:12:24.577Z,72.80
2018-03-02T22:14:52.891Z,67.97
2018-03-02T22:17:21.206Z,87.43
2018-03-02T22:19:49.544Z,70.77
2018-03-02T22:22:17.856Z,73.27
2018-03-02T22:24:46.192Z,82.07
2018-03-02T22:27:14.504Z,71.53
2018-03-02T22:29:42.848Z,73.07
2018-03-02T22:32:11.164Z,72.50
2018-03-02T22:37:40.060Z,77.80
2018-03-02T22:40:08.392Z,78.60
2018-03-02T22:42:36.703Z,93.73
2018-03-02T22:45:05.180Z,79.40
2018-03-02T22:47:33.655Z,77.47
2018-03-02T22:50:02.004Z,89.83
2018-03-02T22:52:30.317Z,87.83
2018-03-02T22:54:58.668Z,89.13
2018-03-02T22:57:26.996Z,80.80
2018-03-02T22:59:55.310Z,90.47
2018-03-02T23:02:24.409Z,95.23
2018-03-02T23:04:53.495Z,83.40
2018-03-02T23:07:22.607Z,86.67
2018-03-02T23:09:50.916Z,94.27
2018-03-02T23:12:19.252Z,94.80
2018-03-02T23:14:48.328Z,90.63
2018-03-02T23:17:16.664Z,82.67
2018-03-02T23:19:44.983Z,89.43
2018-03-02T23:22:13.336Z,80.87
2018-03-02T23:24:41.649Z,89.03
2018-03-02T23:27:10.759Z,80.27
2018-03-02T23:29:39.842Z,102.70
2018-03-02T23:32:08.953Z,103.67
2018-03-02T23:34:37.284Z,108.53
2018-03-02T23:37:05.627Z,82.30
2018-03-02T23:39:33.944Z,98.37
2018-03-02T23:42:02.284Z,102.57
2018-03-02T23:44:30.606Z,107.53
2018-03-02T23:46:58.948Z,101.70
2018-03-02T23:49:27.289Z,92.63
